Airfield :
LOGIN :

Register | Disclaimer

   EN    FR    IT 

 










Legend :    VFR   Marginal VFR   IFR   Intensive IFR   Very Intensive IFR
Visi :
Ceiling :
>= 8 km
>= 3000ft
5 to 8 km
1000 to 3000 ft
1500m to 5 km
500 to 1000 ft
800 to 1500m
200 to 500 ft
< 800m
< 200 ft
Symbols :   Thunderstorms  Fog  Heavy snow  Heavy precipitations  Wind > 20 kt
SIGMETs :     Misc.  Thunderstorms  Icing  Turbulence  Mountain Waves  Volcanic Ashes






- Airport Elevation : 100 ft


EBDT - Schaffen

CURRENT METAR :
  • 151625Z AUTO 34003KT 9999 OVC044/// 01/M02 Q1029 BLU

EXPIRED METARs :
  • 151555Z AUTO 36005KT 9999 OVC046/// 01/M02 Q1029 BLU
  • 151525Z AUTO 36005KT 9999 BKN047/// 01/M02 Q1029 BLU
  • 151455Z AUTO 35004KT 9999 OVC048/// 01/M01 Q1029 BLU
  • 151425Z AUTO 35005KT 9999 BKN048/// 01/M01 Q1029 BLU
  • 151355Z AUTO 34005KT 9999 BKN048/// 01/M02 Q1029 BLU

TAF TAF EBDT
Valid from the 15 at 13:00 until the 15 at 22:00 UTC


151141Z 1513/1522 35007KT 9999 BKN040
TEMPO 1513/1515 FEW015 SCT042



MET'MAP, your aeronautical weather chart ! - Copyright ORBIFLY December 2007 - Disclaimer

ORBIFLY MET'MAP TEAM :

Programming & Development : Alexandra Zaïnal
Concept & original design : Baudouin d'Aumeries
Assistance for programming : Marc-Olivier Méhu
Technical & hardware support : Manuel Goepfert

Contact : metmap@orbifly.com




SOURCES & CREDITS :

   NOAA